Time;durP1;ratioP1;P1;durP2;ratioP2;P2;SDS_P1;SDS_P2;PMS_P1;PMS_P2;Temp;Humidity;BMP_temperature;BMP_pressure;BME280_temperature;BME280_humidity;BME280_pressure;Samples;Min_cycle;Max_cycle;Signal;HPM_P1;HPM_P2
2021/07/23 00:01:43;;;;;;;15.85;8.38;;;23.40;83.10;;;;;;5096075;28;20020;-77
2021/07/23 00:04:11;;;;;;;13.50;8.55;;;23.50;83.10;;;;;;5095911;28;20387;-78
2021/07/23 00:06:37;;;;;;;16.17;8.80;;;23.40;83.20;;;;;;5095765;28;20142;-78
2021/07/23 00:09:03;;;;;;;13.00;8.45;;;23.40;83.30;;;;;;5077548;28;20068;-77
2021/07/23 00:11:29;;;;;;;16.20;8.63;;;23.50;83.00;;;;;;5095673;28;20559;-78
2021/07/23 00:13:55;;;;;;;13.48;8.57;;;23.30;83.00;;;;;;5095447;28;20127;-77
2021/07/23 00:16:21;;;;;;;14.38;8.75;;;23.40;83.20;;;;;;5095523;28;20105;-77
2021/07/23 00:18:47;;;;;;;14.70;8.50;;;23.30;83.30;;;;;;5095784;28;20024;-77
2021/07/23 00:21:12;;;;;;;16.55;8.48;;;23.20;84.00;;;;;;5095551;28;20375;-77
2021/07/23 00:23:38;;;;;;;14.18;9.10;;;23.20;83.70;;;;;;5095664;28;20032;-76
2021/07/23 00:26:14;;;;;;;14.18;9.18;;;23.30;83.70;;;;;;5095147;28;20471;-77
2021/07/23 00:28:41;;;;;;;12.38;8.00;;;23.20;84.10;;;;;;5095353;28;20377;-77
2021/07/23 00:31:06;;;;;;;14.10;8.60;;;23.00;84.70;;;;;;5095348;28;20503;-77
2021/07/23 00:33:32;;;;;;;14.65;8.98;;;23.00;85.30;;;;;;5095421;28;20028;-77
2021/07/23 00:35:58;;;;;;;15.90;8.65;;;22.80;86.00;;;;;;5095139;28;20050;-76
2021/07/23 00:38:24;;;;;;;16.77;8.93;;;22.80;86.70;;;;;;5095173;28;20020;-77
2021/07/23 00:40:49;;;;;;;13.32;8.60;;;22.90;86.60;;;;;;5095125;28;20392;-77
2021/07/23 00:43:15;;;;;;;16.00;8.90;;;22.90;86.20;;;;;;5076961;28;20039;-78
2021/07/23 00:45:41;;;;;;;13.50;9.10;;;22.80;86.60;;;;;;5095026;28;20160;-77
2021/07/23 00:48:07;;;;;;;12.43;9.00;;;22.70;87.00;;;;;;5095094;28;20146;-77
2021/07/23 00:50:33;;;;;;;12.77;8.13;;;22.70;87.60;;;;;;5094924;28;20031;-77
2021/07/23 00:52:59;;;;;;;15.45;8.45;;;22.60;87.80;;;;;;5095316;28;20024;-78
2021/07/23 00:55:26;;;;;;;14.02;8.77;;;22.70;87.50;;;;;;5094764;28;20024;-77
2021/07/23 00:57:54;;;;;;;12.82;8.45;;;22.70;87.30;;;;;;5094797;28;20427;-77
2021/07/23 01:00:20;;;;;;;15.00;8.20;;;22.60;87.70;;;;;;5076586;28;20049;-78
2021/07/23 01:02:48;;;;;;;14.45;8.75;;;22.50;87.80;;;;;;5094995;28;20450;-78
2021/07/23 01:05:13;;;;;;;15.82;8.25;;;22.60;87.30;;;;;;5094817;28;20048;-78
2021/07/23 01:07:39;;;;;;;17.08;8.70;;;22.70;86.90;;;;;;5094744;28;20392;-78
2021/07/23 01:10:06;;;;;;;14.18;8.23;;;22.40;87.50;;;;;;5094529;28;20051;-78
2021/07/23 01:12:35;;;;;;;14.32;9.27;;;22.50;87.80;;;;;;5094531;28;20024;-76
2021/07/23 01:15:01;;;;;;;17.77;8.63;;;22.50;87.70;;;;;;5094220;28;20047;-78
2021/07/23 01:17:27;;;;;;;15.35;8.73;;;22.60;87.40;;;;;;5094383;28;20020;-77
2021/07/23 01:20:06;;;;;;;13.02;8.38;;;22.60;87.30;;;;;;5094388;28;20484;-77
2021/07/23 01:22:34;;;;;;;14.20;8.30;;;22.60;87.30;;;;;;5094426;28;20085;-77
2021/07/23 01:25:00;;;;;;;14.48;9.50;;;22.50;86.70;;;;;;5094210;28;20020;-77
2021/07/23 01:27:28;;;;;;;16.88;8.88;;;21.80;88.60;;;;;;5094310;28;20032;-77
2021/07/23 01:30:21;;;;;;;13.40;8.32;;;21.80;90.00;;;;;;5094327;28;20519;-78
2021/07/23 01:32:47;;;;;;;17.05;9.13;;;21.90;89.70;;;;;;5090005;28;20040;-77
2021/07/23 01:35:13;;;;;;;14.77;9.40;;;21.70;90.10;;;;;;5094225;28;20062;-78
2021/07/23 01:37:44;;;;;;;15.07;8.57;;;21.50;90.70;;;;;;5093309;28;20492;-78
2021/07/23 01:40:10;;;;;;;14.40;8.77;;;21.40;91.00;;;;;;5094088;28;20027;-78
2021/07/23 01:42:37;;;;;;;14.30;9.27;;;21.60;90.40;;;;;;5093943;28;20021;-78
2021/07/23 01:45:04;;;;;;;14.88;9.15;;;21.60;90.20;;;;;;5093940;28;20042;-78
2021/07/23 01:47:29;;;;;;;19.15;9.00;;;21.60;90.10;;;;;;5093840;28;20396;-78
2021/07/23 01:49:55;;;;;;;16.38;9.82;;;21.60;89.80;;;;;;5093826;28;20032;-78
2021/07/23 01:52:21;;;;;;;15.48;9.55;;;21.60;90.10;;;;;;5094259;28;20503;-78
2021/07/23 01:54:47;;;;;;;14.52;9.23;;;21.50;90.10;;;;;;5094124;28;20031;-77
2021/07/23 01:57:13;;;;;;;17.67;9.45;;;21.50;90.10;;;;;;5075500;28;20026;-78
2021/07/23 01:59:39;;;;;;;15.25;9.55;;;21.50;90.00;;;;;;5093704;28;20553;-77
2021/07/23 02:02:05;;;;;;;16.60;9.30;;;21.50;90.00;;;;;;5093675;28;20028;-77
2021/07/23 02:04:31;;;;;;;18.63;9.65;;;21.50;90.00;;;;;;5093917;28;20047;-76
2021/07/23 02:06:57;;;;;;;14.35;9.90;;;21.60;89.70;;;;;;5093706;28;20032;-76
2021/07/23 02:09:23;;;;;;;21.63;9.57;;;21.50;89.60;;;;;;5093577;28;20016;-78
2021/07/23 02:11:49;;;;;;;16.13;9.70;;;21.50;89.60;;;;;;5093586;28;20032;-77
2021/07/23 02:14:15;;;;;;;16.58;9.13;;;21.50;89.50;;;;;;5093214;28;20420;-77
2021/07/23 02:16:41;;;;;;;14.65;9.43;;;21.50;89.30;;;;;;5093347;28;20024;-77
2021/07/23 02:19:07;;;;;;;16.17;9.35;;;21.50;89.30;;;;;;5093440;28;20514;-76
2021/07/23 02:21:37;;;;;;;14.82;9.55;;;21.50;88.70;;;;;;5075314;28;20477;-77
2021/07/23 02:24:04;;;;;;;16.27;9.45;;;21.00;90.00;;;;;;5093488;28;20016;-77
2021/07/23 02:26:29;;;;;;;19.42;9.35;;;21.20;90.10;;;;;;5093421;28;20058;-78
2021/07/23 02:28:57;;;;;;;14.55;9.45;;;21.00;90.40;;;;;;5093394;28;20024;-77
2021/07/23 02:31:24;;;;;;;16.80;8.88;;;21.00;90.40;;;;;;5093362;28;20434;-77
2021/07/23 02:33:49;;;;;;;17.13;9.18;;;21.10;90.50;;;;;;5093290;28;20016;-77
2021/07/23 02:36:15;;;;;;;16.77;9.80;;;21.10;90.60;;;;;;5093189;28;20496;-78
2021/07/23 02:38:41;;;;;;;14.77;8.98;;;21.20;90.30;;;;;;5093183;28;20047;-77
2021/07/23 02:41:07;;;;;;;14.88;10.07;;;21.10;90.50;;;;;;5075159;28;20051;-77
2021/07/23 02:43:33;;;;;;;16.98;9.68;;;21.10;90.50;;;;;;5093475;28;20062;-78
2021/07/23 02:45:59;;;;;;;15.82;9.70;;;21.10;90.50;;;;;;5093191;28;20488;-78
2021/07/23 02:48:24;;;;;;;15.63;9.85;;;21.00;90.70;;;;;;5095572;28;20051;-79
2021/07/23 02:50:50;;;;;;;15.63;10.65;;;21.20;90.40;;;;;;5097306;28;20028;-77
2021/07/23 02:53:19;;;;;;;14.82;9.27;;;21.20;90.30;;;;;;5097199;28;20031;-76
2021/07/23 02:55:45;;;;;;;15.27;9.05;;;21.20;90.40;;;;;;5097342;28;20393;-79
2021/07/23 02:58:11;;;;;;;13.68;9.27;;;21.40;89.70;;;;;;5078981;28;20012;-77
2021/07/23 03:00:37;;;;;;;13.98;8.95;;;21.30;89.90;;;;;;5097298;28;20020;-79
2021/07/23 03:03:04;;;;;;;15.40;9.88;;;21.10;90.40;;;;;;5097140;28;20388;-79
2021/07/23 03:05:30;;;;;;;13.30;8.90;;;21.00;90.70;;;;;;5096992;28;20484;-78
2021/07/23 03:07:56;;;;;;;14.23;9.85;;;21.10;90.70;;;;;;5096895;28;20077;-78
2021/07/23 03:10:22;;;;;;;15.20;8.90;;;21.20;90.40;;;;;;5096913;28;20396;-77
2021/07/23 03:12:47;;;;;;;12.70;9.15;;;21.20;90.40;;;;;;5096857;28;20452;-77
2021/07/23 03:15:13;;;;;;;17.05;9.50;;;21.40;89.80;;;;;;5096313;28;20044;-78
2021/07/23 03:17:39;;;;;;;15.65;9.45;;;21.10;90.10;;;;;;5096773;28;20104;-77
2021/07/23 03:20:06;;;;;;;15.98;9.98;;;20.70;90.50;;;;;;5097047;28;20365;-78
2021/07/23 03:22:32;;;;;;;14.45;9.30;;;20.40;91.30;;;;;;5096720;28;20062;-78
2021/07/23 03:24:58;;;;;;;15.70;9.50;;;20.40;91.70;;;;;;5078339;28;20059;-77
2021/07/23 03:27:23;;;;;;;13.85;9.30;;;20.60;91.40;;;;;;5096577;28;20051;-77
2021/07/23 03:29:49;;;;;;;16.02;9.38;;;20.60;91.50;;;;;;5096705;28;20028;-77
2021/07/23 03:32:15;;;;;;;15.30;9.30;;;20.50;91.50;;;;;;5096769;28;20121;-77
2021/07/23 03:34:41;;;;;;;14.05;9.15;;;20.60;91.60;;;;;;5096337;28;20032;-77
2021/07/23 03:37:06;;;;;;;15.27;9.10;;;20.60;91.70;;;;;;5096496;28;20024;-78
2021/07/23 03:39:32;;;;;;;16.27;8.88;;;20.60;91.30;;;;;;5096348;28;20020;-78
2021/07/23 03:41:58;;;;;;;15.25;8.95;;;20.90;90.80;;;;;;5096331;28;20453;-76
2021/07/23 03:44:24;;;;;;;13.52;8.07;;;21.10;90.20;;;;;;5096322;28;20430;-78
2021/07/23 03:46:50;;;;;;;13.60;8.90;;;21.10;90.50;;;;;;5096343;28;20020;-77
2021/07/23 03:49:15;;;;;;;14.05;8.25;;;20.80;89.90;;;;;;5078024;28;20032;-77
2021/07/23 03:51:41;;;;;;;14.02;8.60;;;20.70;90.10;;;;;;5096092;28;20388;-77
2021/07/23 03:54:07;;;;;;;16.25;9.32;;;20.50;90.80;;;;;;5096086;28;20034;-77
2021/07/23 03:56:33;;;;;;;13.10;8.90;;;20.40;91.20;;;;;;5095597;28;20024;-77
2021/07/23 03:58:59;;;;;;;14.55;9.15;;;20.20;91.70;;;;;;5095379;28;20023;-78
2021/07/23 04:01:25;;;;;;;14.75;9.68;;;20.20;91.70;;;;;;5077771;28;20020;-78
2021/07/23 04:03:51;;;;;;;13.48;8.63;;;20.20;91.50;;;;;;5095856;28;20024;-77
2021/07/23 04:06:17;;;;;;;17.52;8.88;;;20.20;91.70;;;;;;5095769;28;20021;-77
2021/07/23 04:08:43;;;;;;;16.98;8.98;;;20.30;91.60;;;;;;5095988;28;20035;-77
2021/07/23 04:11:14;;;;;;;12.73;8.32;;;20.40;91.10;;;;;;5095927;28;20392;-77
2021/07/23 04:13:40;;;;;;;14.68;8.50;;;20.30;91.10;;;;;;5073769;28;20186;-77
2021/07/23 04:16:06;;;;;;;14.07;8.68;;;20.40;90.90;;;;;;5073876;28;20024;-77
2021/07/23 04:18:32;;;;;;;15.25;8.55;;;20.30;91.20;;;;;;5075573;28;20020;-78
2021/07/23 04:20:57;;;;;;;13.70;8.32;;;20.30;91.30;;;;;;5075354;28;20021;-77
2021/07/23 04:23:23;;;;;;;16.65;8.50;;;20.50;91.10;;;;;;5075410;28;20067;-77
2021/07/23 04:25:49;;;;;;;13.13;9.02;;;20.50;91.20;;;;;;5075206;28;20079;-77
2021/07/23 04:28:15;;;;;;;12.82;8.55;;;20.70;90.80;;;;;;5075195;28;20059;-76
2021/07/23 04:30:40;;;;;;;14.07;8.95;;;20.80;90.60;;;;;;5075366;28;20439;-77
2021/07/23 04:33:06;;;;;;;13.35;8.73;;;20.70;90.80;;;;;;5075143;28;20032;-77
2021/07/23 04:35:32;;;;;;;14.40;8.82;;;20.60;90.60;;;;;;5075098;28;20021;-77
2021/07/23 04:37:57;;;;;;;12.70;8.57;;;20.50;90.50;;;;;;5074451;28;20385;-77
2021/07/23 04:40:23;;;;;;;15.48;8.20;;;20.40;90.50;;;;;;5075108;28;20048;-77
2021/07/23 04:42:49;;;;;;;14.50;8.38;;;20.30;90.40;;;;;;5074957;28;20020;-76
2021/07/23 04:45:15;;;;;;;;;;;20.20;90.60;;;;;;5075385;28;20024;-78
2021/07/23 04:47:40;;;;;;;13.52;8.60;;;19.80;91.30;;;;;;5074854;28;19905;-77
2021/07/23 04:50:06;;;;;;;16.15;8.63;;;19.60;92.10;;;;;;5074740;28;20032;-77
2021/07/23 04:52:32;;;;;;;14.50;8.60;;;19.70;92.20;;;;;;5074929;28;20034;-77
2021/07/23 04:54:59;;;;;;;15.70;8.63;;;20.00;91.60;;;;;;5073210;28;20499;-78
2021/07/23 04:57:29;;;;;;;13.07;8.30;;;20.20;91.10;;;;;;5074608;28;20031;-76
2021/07/23 04:59:54;;;;;;;15.20;9.07;;;20.40;91.20;;;;;;5073322;28;20032;-77
2021/07/23 05:02:20;;;;;;;14.52;8.95;;;20.50;91.30;;;;;;5074486;28;20385;-77
2021/07/23 05:04:46;;;;;;;19.52;9.52;;;20.40;91.50;;;;;;5074474;28;20039;-77
2021/07/23 05:07:12;;;;;;;15.65;8.40;;;20.70;90.90;;;;;;5074619;28;20393;-77
2021/07/23 05:09:37;;;;;;;15.15;8.32;;;20.80;90.20;;;;;;5073103;28;20028;-77
2021/07/23 05:12:04;;;;;;;13.57;7.50;;;20.80;90.10;;;;;;5074314;28;20025;-77
2021/07/23 05:14:31;;;;;;;13.70;7.78;;;20.50;90.50;;;;;;5072748;28;20094;-78
2021/07/23 05:16:58;;;;;;;13.77;8.65;;;20.50;90.50;;;;;;5074152;28;20021;-77
2021/07/23 05:19:24;;;;;;;13.77;8.70;;;20.40;90.40;;;;;;5074314;28;20078;-77
2021/07/23 05:21:50;;;;;;;16.88;8.77;;;20.30;90.80;;;;;;5074108;28;20027;-78
2021/07/23 05:24:16;;;;;;;13.55;8.88;;;20.40;90.60;;;;;;5074041;28;20020;-77
2021/07/23 05:26:42;;;;;;;15.10;9.20;;;20.50;90.60;;;;;;5074053;28;20025;-78
2021/07/23 05:29:09;;;;;;;17.45;8.85;;;20.60;90.50;;;;;;5074000;28;20110;-79
2021/07/23 05:31:35;;;;;;;12.75;7.55;;;20.60;90.60;;;;;;5073981;28;20035;-77
2021/07/23 05:34:02;;;;;;;15.85;8.45;;;20.60;90.80;;;;;;5073612;28;20033;-78
2021/07/23 05:36:28;;;;;;;18.33;9.15;;;21.00;90.40;;;;;;5072491;28;20021;-77
2021/07/23 05:38:54;;;;;;;13.70;8.23;;;20.90;90.30;;;;;;5073851;28;20114;-77
2021/07/23 05:41:20;;;;;;;15.10;9.45;;;20.90;90.50;;;;;;5073783;28;20012;-77
2021/07/23 05:43:47;;;;;;;12.75;8.27;;;20.90;90.50;;;;;;5073794;28;20028;-77
2021/07/23 05:46:13;;;;;;;14.90;8.85;;;21.20;90.20;;;;;;5073711;28;20020;-77
2021/07/23 05:48:40;;;;;;;15.90;8.75;;;21.30;90.10;;;;;;5073699;28;20020;-77
2021/07/23 05:51:07;;;;;;;21.88;10.18;;;21.50;89.50;;;;;;5073588;28;20020;-77
2021/07/23 05:53:34;;;;;;;14.57;9.75;;;21.60;88.60;;;;;;5072331;28;20489;-77
2021/07/23 05:56:00;;;;;;;16.55;10.45;;;21.60;88.20;;;;;;5073501;28;20048;-77
2021/07/23 05:58:30;;;;;;;18.02;10.98;;;21.60;88.30;;;;;;5073784;28;20447;-78
2021/07/23 06:00:56;;;;;;;22.85;10.88;;;21.50;88.80;;;;;;5073744;28;20551;-78
2021/07/23 06:03:22;;;;;;;17.67;11.25;;;21.50;89.00;;;;;;5073492;28;20075;-77
2021/07/23 06:05:49;;;;;;;19.50;10.40;;;21.50;89.20;;;;;;5073509;28;20024;-77
2021/07/23 06:08:14;;;;;;;19.35;10.13;;;21.40;89.90;;;;;;5073411;28;20070;-77
2021/07/23 06:10:41;;;;;;;17.40;11.02;;;21.60;89.70;;;;;;5073391;28;20024;-79
2021/07/23 06:13:06;;;;;;;18.63;10.07;;;21.70;88.90;;;;;;5072069;28;20032;-77
2021/07/23 06:15:32;;;;;;;15.73;10.15;;;21.90;88.70;;;;;;5071759;28;20566;-79
2021/07/23 06:17:59;;;;;;;24.15;11.48;;;22.10;87.70;;;;;;5071905;28;20025;-77
2021/07/23 06:20:24;;;;;;;20.40;10.75;;;22.00;87.60;;;;;;5073622;28;20013;-78
2021/07/23 06:22:55;;;;;;;16.50;10.77;;;22.20;87.10;;;;;;5071367;28;20389;-78
2021/07/23 06:25:21;;;;;;;24.00;11.10;;;22.40;86.20;;;;;;5073133;28;20029;-78
2021/07/23 06:27:47;;;;;;;18.67;10.85;;;22.50;86.40;;;;;;5073253;28;20438;-77
2021/07/23 06:30:13;;;;;;;16.02;9.98;;;22.50;85.70;;;;;;5073333;28;20021;-77
2021/07/23 06:32:39;;;;;;;16.95;10.52;;;22.60;85.70;;;;;;5073107;28;20021;-78
2021/07/23 06:35:05;;;;;;;22.23;10.02;;;22.80;85.80;;;;;;5073049;28;20035;-77
2021/07/23 06:37:31;;;;;;;16.13;10.10;;;22.90;85.40;;;;;;5073215;28;20484;-77
2021/07/23 06:39:57;;;;;;;16.77;10.43;;;23.10;83.50;;;;;;5073065;28;20028;-79
2021/07/23 06:42:24;;;;;;;15.18;10.02;;;23.00;83.40;;;;;;5073015;28;20524;-77
2021/07/23 06:44:53;;;;;;;16.80;9.68;;;23.00;83.30;;;;;;5072996;28;20066;-77
2021/07/23 06:47:19;;;;;;;16.70;10.48;;;23.20;83.10;;;;;;5071656;28;20398;-77
2021/07/23 06:49:45;;;;;;;15.38;9.70;;;23.30;82.10;;;;;;5071712;28;20051;-78
2021/07/23 06:52:11;;;;;;;19.58;10.00;;;23.30;81.70;;;;;;5073340;28;20021;-78
2021/07/23 06:54:37;;;;;;;16.33;9.57;;;23.30;81.70;;;;;;5073027;28;20043;-78
2021/07/23 06:57:04;;;;;;;15.15;9.63;;;23.20;81.90;;;;;;5072968;28;20029;-76
2021/07/23 06:59:31;;;;;;;18.40;10.05;;;23.20;82.00;;;;;;5072862;28;20020;-77
2021/07/23 07:01:59;;;;;;;16.20;10.05;;;23.20;81.50;;;;;;5072834;28;20032;-78
2021/07/23 07:04:25;;;;;;;17.50;10.35;;;23.30;81.70;;;;;;5072976;28;20106;-77
2021/07/23 07:06:53;;;;;;;16.63;9.80;;;23.40;81.60;;;;;;5071537;28;20028;-78
2021/07/23 07:09:19;;;;;;;16.80;10.07;;;23.60;80.30;;;;;;5073326;28;20461;-78
2021/07/23 07:11:45;;;;;;;16.75;9.90;;;23.80;79.50;;;;;;5071470;28;20083;-77
2021/07/23 07:14:11;;;;;;;17.35;10.13;;;24.00;79.20;;;;;;5081621;28;20036;-78
2021/07/23 07:16:36;;;;;;;24.88;9.70;;;24.20;78.20;;;;;;5093073;28;20495;-77
2021/07/23 07:19:03;;;;;;;16.92;9.15;;;24.20;78.50;;;;;;5092945;28;20091;-77
2021/07/23 07:21:28;;;;;;;17.80;9.25;;;24.40;77.60;;;;;;5074833;28;20108;-78
2021/07/23 07:23:54;;;;;;;12.95;9.20;;;24.50;76.90;;;;;;5092904;28;20044;-77
2021/07/23 07:26:20;;;;;;;15.40;9.25;;;24.60;76.80;;;;;;5074660;28;20035;-77
2021/07/23 07:28:46;;;;;;;15.77;9.00;;;24.90;76.30;;;;;;5092791;28;20077;-77
2021/07/23 07:31:16;;;;;;;16.08;9.77;;;25.10;74.40;;;;;;5092798;28;20023;-77
2021/07/23 07:33:42;;;;;;;18.55;9.30;;;25.60;73.60;;;;;;5092765;28;20107;-79
2021/07/23 07:36:08;;;;;;;17.65;9.60;;;26.10;71.00;;;;;;5095992;28;20548;-77
2021/07/23 07:38:36;;;;;;;12.77;8.98;;;27.10;68.70;;;;;;5096355;28;20061;-78
2021/07/23 07:41:02;;;;;;;11.95;8.32;;;27.80;64.90;;;;;;5078185;28;20035;-76
2021/07/23 07:43:28;;;;;;;15.45;8.90;;;28.20;62.40;;;;;;5096363;28;20381;-76
2021/07/23 07:45:55;;;;;;;16.20;9.05;;;28.10;62.60;;;;;;5096224;28;20031;-78
2021/07/23 07:48:21;;;;;;;15.07;8.88;;;28.40;61.50;;;;;;5096617;28;20028;-79
2021/07/23 07:50:47;;;;;;;14.88;8.32;;;28.30;61.60;;;;;;5096277;28;20082;-77
2021/07/23 07:53:13;;;;;;;15.48;9.02;;;28.60;60.20;;;;;;5096413;28;20027;-77
2021/07/23 07:55:39;;;;;;;16.60;9.23;;;28.50;60.10;;;;;;5096053;28;20032;-77
2021/07/23 07:58:05;;;;;;;15.90;9.30;;;28.90;60.10;;;;;;5095994;28;20048;-79
2021/07/23 08:00:31;;;;;;;21.50;10.00;;;29.30;58.40;;;;;;5096242;28;20082;-78
2021/07/23 08:02:57;;;;;;;18.67;10.10;;;29.60;57.20;;;;;;5095956;28;20023;-79
2021/07/23 08:05:22;;;;;;;17.42;8.70;;;29.80;57.30;;;;;;5095894;28;20031;-77
2021/07/23 08:07:49;;;;;;;24.58;9.50;;;29.70;58.00;;;;;;5095819;28;20031;-78
2021/07/23 08:10:16;;;;;;;78.72;12.88;;;29.90;55.70;;;;;;5077638;28;20028;-79
2021/07/23 08:12:42;;;;;;;15.90;8.38;;;29.90;55.50;;;;;;5095720;28;20016;-77
2021/07/23 08:15:08;;;;;;;16.95;9.27;;;30.30;55.40;;;;;;5095220;28;20048;-77
2021/07/23 08:17:34;;;;;;;22.02;8.73;;;30.50;54.40;;;;;;5095763;28;20084;-77
2021/07/23 08:20:02;;;;;;;17.42;8.80;;;30.50;54.10;;;;;;5095571;28;20468;-77
2021/07/23 08:22:29;;;;;;;17.30;8.48;;;30.60;54.70;;;;;;5077402;28;20544;-78
2021/07/23 08:24:56;;;;;;;19.40;8.93;;;30.60;54.30;;;;;;5095426;28;20020;-77
2021/07/23 08:27:22;;;;;;;15.73;7.95;;;30.90;54.30;;;;;;5096043;28;20058;-78
2021/07/23 08:29:48;;;;;;;16.67;7.75;;;30.80;53.80;;;;;;5095592;28;20048;-78
2021/07/23 08:32:14;;;;;;;19.00;8.20;;;31.20;52.80;;;;;;5095435;28;20077;-78
2021/07/23 08:34:40;;;;;;;16.95;8.13;;;31.00;52.20;;;;;;5077189;28;20023;-77
2021/07/23 08:37:07;;;;;;;17.48;8.38;;;30.80;53.30;;;;;;5095449;28;20432;-78
2021/07/23 08:39:33;;;;;;;15.85;8.32;;;30.70;53.40;;;;;;5095156;28;20017;-77
2021/07/23 08:42:19;;;;;;;16.58;8.13;;;30.20;54.10;;;;;;5095118;28;20024;-78
2021/07/23 08:44:45;;;;;;;15.82;7.97;;;29.50;54.70;;;;;;5094900;28;20396;-78
2021/07/23 08:47:11;;;;;;;18.60;8.23;;;29.00;56.70;;;;;;5094745;28;20016;-78
2021/07/23 08:49:36;;;;;;;17.85;8.60;;;28.80;57.20;;;;;;5094895;28;20055;-77
2021/07/23 08:52:02;;;;;;;13.98;8.07;;;29.00;57.90;;;;;;5094951;28;20042;-78
2021/07/23 08:54:29;;;;;;;15.30;8.15;;;29.40;56.10;;;;;;5094889;28;20032;-75
2021/07/23 08:56:55;;;;;;;19.33;8.60;;;30.10;55.40;;;;;;5094779;28;20047;-77
2021/07/23 08:59:21;;;;;;;17.58;8.70;;;30.20;55.70;;;;;;5094812;28;20472;-78
2021/07/23 09:02:06;;;;;;;14.10;8.32;;;30.10;55.20;;;;;;5076608;28;20024;-78
2021/07/23 09:04:37;;;;;;;15.98;8.75;;;29.60;56.10;;;;;;5094999;28;20031;-78
2021/07/23 09:07:17;;;;;;;17.23;8.25;;;29.70;56.30;;;;;;5094843;28;20032;-77
2021/07/23 09:09:57;;;;;;;19.70;8.80;;;30.30;55.90;;;;;;5094600;28;20057;-79
2021/07/23 09:12:22;;;;;;;17.63;8.63;;;31.00;54.90;;;;;;5094825;28;20495;-76
2021/07/23 09:14:48;;;;;;;17.67;8.15;;;31.90;52.70;;;;;;5094319;28;20056;-77
2021/07/23 09:17:14;;;;;;;16.88;7.88;;;32.40;51.60;;;;;;5094618;28;20035;-78
2021/07/23 09:19:40;;;;;;;15.98;7.68;;;33.20;50.10;;;;;;5094729;28;20047;-78
2021/07/23 09:22:06;;;;;;;15.93;8.30;;;33.50;48.20;;;;;;5094587;28;20047;-77
2021/07/23 09:24:53;;;;;;;14.38;8.20;;;32.80;49.60;;;;;;5094309;28;20020;-78
2021/07/23 09:27:35;;;;;;;17.23;8.27;;;32.90;49.60;;;;;;5094349;28;20024;-78
2021/07/23 09:30:06;;;;;;;16.85;8.05;;;33.00;49.50;;;;;;5076073;28;20031;-78
2021/07/23 09:32:32;;;;;;;15.45;8.07;;;32.60;49.00;;;;;;5094433;28;20480;-77
2021/07/23 09:35:12;;;;;;;16.55;8.25;;;31.50;50.10;;;;;;5094080;28;20016;-77
2021/07/23 09:37:54;;;;;;;19.38;8.25;;;31.40;51.30;;;;;;5094069;28;20051;-77
2021/07/23 09:40:21;;;;;;;16.45;8.27;;;31.80;50.50;;;;;;5094280;28;20026;-78
2021/07/23 09:42:59;;;;;;;12.82;8.30;;;31.90;49.70;;;;;;5094040;28;20024;-79
2021/07/23 09:45:29;;;;;;;13.98;8.55;;;31.40;52.10;;;;;;5075796;28;20488;-77
2021/07/23 09:48:27;;;;;;;14.10;8.55;;;31.20;51.50;;;;;;5093947;28;20027;-77
2021/07/23 09:50:55;;;;;;;20.63;8.77;;;30.80;52.40;;;;;;5075111;28;20039;-79
2021/07/23 09:53:21;;;;;;;19.63;8.88;;;30.60;52.70;;;;;;5093968;28;20431;-79
2021/07/23 09:55:47;;;;;;;17.30;8.50;;;30.80;52.80;;;;;;5094060;28;20024;-77
2021/07/23 09:58:19;;;;;;;14.82;8.50;;;30.90;53.10;;;;;;5093278;28;20030;-78
2021/07/23 10:00:50;;;;;;;14.82;8.35;;;32.00;51.40;;;;;;5094213;28;20540;-78
2021/07/23 10:03:16;;;;;;;17.98;8.85;;;32.30;50.40;;;;;;5093868;28;20031;-79
2021/07/23 10:05:55;;;;;;;16.70;8.20;;;33.30;48.50;;;;;;5093599;28;20366;-79
2021/07/23 10:08:29;;;;;;;17.50;8.35;;;33.60;46.90;;;;;;5075254;28;20024;-78
2021/07/23 10:10:56;;;;;;;15.77;8.05;;;33.60;47.70;;;;;;5093584;28;20032;-78
2021/07/23 10:13:27;;;;;;;18.63;8.40;;;33.60;46.70;;;;;;5093264;28;20052;-78
2021/07/23 10:15:53;;;;;;;14.07;8.32;;;33.10;47.60;;;;;;5093514;28;20035;-79
2021/07/23 10:18:22;;;;;;;15.05;8.10;;;33.60;47.30;;;;;;5093719;28;20147;-78
2021/07/23 10:20:48;;;;;;;15.90;7.80;;;34.30;46.00;;;;;;5093380;28;20055;-79
2021/07/23 10:23:19;;;;;;;16.17;8.07;;;35.20;45.70;;;;;;5093418;28;20020;-77
2021/07/23 10:25:50;;;;;;;18.65;7.78;;;35.30;45.40;;;;;;5093460;28;20024;-77
2021/07/23 10:28:44;;;;;;;15.73;8.15;;;34.70;45.20;;;;;;5093373;28;20103;-77
2021/07/23 10:31:24;;;;;;;14.20;8.05;;;34.60;45.70;;;;;;5093577;28;20107;-79
2021/07/23 10:34:01;;;;;;;13.70;8.07;;;35.10;45.50;;;;;;5074908;28;20412;-79
2021/07/23 10:36:27;;;;;;;14.13;8.23;;;34.90;45.10;;;;;;5074757;28;20400;-77
2021/07/23 10:39:05;;;;;;;18.25;7.85;;;34.60;45.90;;;;;;5093261;28;20020;-78
2021/07/23 10:41:31;;;;;;;22.88;8.50;;;34.40;46.80;;;;;;5093227;28;20020;-78
2021/07/23 10:43:57;;;;;;;14.93;8.00;;;34.30;46.80;;;;;;5075096;28;20028;-78
2021/07/23 10:46:45;;;;;;;13.20;7.93;;;32.90;47.00;;;;;;5093200;28;20020;-78
2021/07/23 10:49:31;;;;;;;17.52;8.52;;;31.60;49.30;;;;;;5093231;28;20081;-78
2021/07/23 10:52:01;;;;;;;16.80;8.60;;;30.60;51.60;;;;;;5093162;28;20024;-77
2021/07/23 10:54:27;;;;;;;19.25;8.90;;;30.40;52.30;;;;;;5093079;28;20034;-78
2021/07/23 10:57:05;;;;;;;14.57;8.60;;;30.20;53.10;;;;;;5093323;28;20024;-77
2021/07/23 11:02:05;;;;;;;;;;;30.30;52.40;;;;;;5093834;28;20020;-77
2021/07/23 11:04:35;;;;;;;15.52;8.57;;;30.60;52.00;;;;;;5093064;28;19990;-77
2021/07/23 11:07:02;;;;;;;17.15;8.63;;;30.70;52.20;;;;;;5093035;28;20147;-77
2021/07/23 11:09:31;;;;;;;17.25;8.80;;;30.90;52.50;;;;;;5095410;28;20023;-78
2021/07/23 11:12:20;;;;;;;15.82;8.40;;;31.20;52.40;;;;;;5096920;28;20093;-77
2021/07/23 11:14:52;;;;;;;16.98;8.32;;;31.10;49.80;;;;;;5096935;28;20499;-77
2021/07/23 11:17:18;;;;;;;16.63;8.85;;;30.20;52.10;;;;;;5096773;28;20507;-78
2021/07/23 11:19:55;;;;;;;15.68;8.10;;;29.40;52.90;;;;;;5078600;28;20024;-77
2021/07/23 11:22:26;;;;;;;13.95;8.38;;;29.20;54.80;;;;;;5096916;28;20028;-78
2021/07/23 11:24:56;;;;;;;13.85;8.32;;;29.30;54.90;;;;;;5096742;28;20097;-77
2021/07/23 11:27:26;;;;;;;12.52;8.32;;;29.30;54.10;;;;;;5096639;28;20473;-77
2021/07/23 11:29:54;;;;;;;13.95;8.07;;;29.50;54.00;;;;;;5096634;28;20021;-78
2021/07/23 11:32:21;;;;;;;16.63;8.70;;;29.80;53.00;;;;;;5096735;28;20016;-77
2021/07/23 11:34:47;;;;;;;15.63;8.57;;;30.60;51.90;;;;;;5096652;28;20126;-79
2021/07/23 11:37:16;;;;;;;18.70;8.63;;;31.70;50.30;;;;;;5096405;28;20028;-77
2021/07/23 11:40:09;;;;;;;15.43;8.30;;;33.60;47.90;;;;;;5096378;28;20476;-79
2021/07/23 11:42:36;;;;;;;15.55;8.32;;;34.50;45.60;;;;;;5092084;28;20507;-78
2021/07/23 11:45:04;;;;;;;17.02;8.23;;;34.70;45.40;;;;;;5078153;28;20426;-78
2021/07/23 11:47:31;;;;;;;13.88;7.95;;;34.70;45.30;;;;;;5096296;28;20548;-78
2021/07/23 11:49:59;;;;;;;15.73;8.48;;;35.00;45.70;;;;;;5096218;28;20024;-78
2021/07/23 11:52:25;;;;;;;15.68;8.23;;;36.00;44.20;;;;;;5096153;28;20059;-79
2021/07/23 11:55:08;;;;;;;13.27;7.78;;;37.50;42.30;;;;;;5096130;28;20553;-79
2021/07/23 11:57:44;;;;;;;16.63;8.57;;;36.60;42.20;;;;;;5096297;28;20099;-77
2021/07/23 12:00:13;;;;;;;17.30;8.55;;;35.20;43.30;;;;;;5077584;28;20107;-77
2021/07/23 12:02:39;;;;;;;16.50;8.02;;;34.40;44.90;;;;;;5096213;28;20034;-78
2021/07/23 12:05:10;;;;;;;12.55;8.07;;;34.30;45.00;;;;;;5095987;28;20028;-78
2021/07/23 12:07:37;;;;;;;37.05;8.88;;;36.20;43.90;;;;;;5095888;28;20027;-79
2021/07/23 12:10:09;;;;;;;16.80;7.57;;;37.40;42.30;;;;;;5077631;28;20369;-79
2021/07/23 12:12:35;;;;;;;14.73;7.60;;;37.50;41.90;;;;;;5096117;28;20050;-79
2021/07/23 12:15:12;;;;;;;13.63;7.82;;;37.90;40.90;;;;;;5095449;28;20052;-79
2021/07/23 12:17:46;;;;;;;11.25;7.70;;;38.80;41.00;;;;;;5095716;28;20024;-79
2021/07/23 12:20:14;;;;;;;11.57;7.43;;;39.50;39.60;;;;;;5076849;28;20027;-78
2021/07/23 12:22:54;;;;;;;15.50;8.05;;;38.40;40.40;;;;;;5095976;28;20061;-77
2021/07/23 12:25:21;;;;;;;14.55;7.63;;;38.10;41.20;;;;;;5095708;28;20035;-80
2021/07/23 12:28:14;;;;;;;17.65;8.10;;;38.50;40.00;;;;;;5095627;28;20027;-78
2021/07/23 12:30:41;;;;;;;;;;;39.50;39.60;;;;;;5077561;28;20035;-77
2021/07/23 12:33:17;;;;;;;17.00;7.68;;;39.90;38.60;;;;;;5095605;28;19950;-80
2021/07/23 12:35:50;;;;;;;13.15;7.53;;;39.50;39.10;;;;;;5095456;28;20461;-78
2021/07/23 12:38:16;;;;;;;14.38;7.88;;;40.00;39.30;;;;;;5095565;28;20017;-79
2021/07/23 12:40:51;;;;;;;14.80;7.43;;;40.40;38.30;;;;;;5077151;28;20028;-78
2021/07/23 12:43:19;;;;;;;14.75;7.65;;;40.60;38.10;;;;;;5095349;28;20047;-77